SVA035 OEJN-KIAD
Flight info
| Callsign | SVA035 |
|---|---|
| Flight time | N/A |
| Altitude | 32000 |
| Route | BOMOX M686 OTEMO T55 KUNKI P751 METRU/N0488F340 UP868 ARLOS/N0502F300 M871 EVLIB T340 LEVDI/N0487F340 DCT UNIXO DCT POKAV DCT ABIDU/N0483F350 DCT EPIKU/N0488F340 DCT GINOX DCT KIFMI DCT ELVOP DCT MUREN/N0486F350 M601 BCN N725 SUSOS/N0493F360 DCT STG DCT PETEK/N0483F350 DCT ARMED/M084F360 DCT 41N020W 41N025W 41N030W 3930N04000W/M084F380 39N050W DCT SOORY DCT SLATN/N0480F400 R56 LINND DCT OWENZ Y481 DIXIE DCT RBV HYPER9 |
| Aircraft | B77W/H-SDE2E3FGHIRWXY/L |
Departure
| Time | 2026-05-04 21:58 |
|---|---|
| Airport | King Abdulaziz International Airport (OEJN) |
Arrival
| Time | N/A |
|---|---|
| Airport | Washington Dulles International Airport (KIAD) |
| Time | Latitude | Longitude | Altitude | Speed | Heading |
|---|---|---|---|---|---|
| 2026-05-04 21:19 | 21.66982 | 39.16645 | 35 ft | 0 kts | 9° |
| 2026-05-04 21:21 | 21.66979 | 39.16644 | 35 ft | 0 kts | 9° |
| 2026-05-04 21:46 | 21.66968 | 39.16642 | 35 ft | 4 kts | 9° |
| 2026-05-04 21:47 | 21.66941 | 39.16637 | 34 ft | 4 kts | 9° |
| 2026-05-04 21:47 | 21.66917 | 39.16633 | 35 ft | 4 kts | 14° |
| 2026-05-04 21:47 | 21.66899 | 39.16621 | 34 ft | 4 kts | 81° |
| 2026-05-04 21:47 | 21.66901 | 39.16594 | 31 ft | 4 kts | 101° |
| 2026-05-04 21:48 | 21.66902 | 39.16588 | 31 ft | 0 kts | 99° |
| 2026-05-04 21:51 | 21.66898 | 39.16615 | 31 ft | 9 kts | 99° |
| 2026-05-04 21:51 | 21.66883 | 39.16709 | 35 ft | 14 kts | 102° |
| 2026-05-04 21:52 | 21.66843 | 39.16802 | 35 ft | 14 kts | 122° |
| 2026-05-04 21:52 | 21.66783 | 39.16878 | 35 ft | 6 kts | 142° |
| 2026-05-04 21:52 | 21.66745 | 39.16899 | 35 ft | 6 kts | 159° |
| 2026-05-04 21:52 | 21.66705 | 39.16914 | 35 ft | 6 kts | 160° |
| 2026-05-04 21:53 | 21.66664 | 39.16930 | 35 ft | 6 kts | 160° |
| 2026-05-04 21:53 | 21.66623 | 39.16946 | 35 ft | 6 kts | 160° |
| 2026-05-04 21:53 | 21.66583 | 39.16961 | 35 ft | 6 kts | 160° |
| 2026-05-04 21:53 | 21.66523 | 39.16985 | 35 ft | 11 kts | 160° |
| 2026-05-04 21:54 | 21.66451 | 39.17013 | 35 ft | 11 kts | 163° |
| 2026-05-04 21:54 | 21.66377 | 39.17015 | 35 ft | 11 kts | 188° |
| 2026-05-04 21:54 | 21.66309 | 39.16983 | 35 ft | 11 kts | 229° |
| 2026-05-04 21:54 | 21.66278 | 39.16909 | 35 ft | 11 kts | 248° |
| 2026-05-04 21:55 | 21.66251 | 39.16833 | 35 ft | 11 kts | 252° |
| 2026-05-04 21:55 | 21.66226 | 39.16757 | 35 ft | 11 kts | 250° |
| 2026-05-04 21:55 | 21.66198 | 39.16677 | 35 ft | 12 kts | 249° |
| 2026-05-04 21:55 | 21.66167 | 39.16591 | 35 ft | 12 kts | 249° |
| 2026-05-04 21:56 | 21.66144 | 39.16513 | 35 ft | 10 kts | 264° |
| 2026-05-04 21:56 | 21.66163 | 39.16471 | 35 ft | 5 kts | 345° |
| 2026-05-04 21:56 | 21.66193 | 39.16462 | 35 ft | 4 kts | 339° |
| 2026-05-04 21:56 | 21.66196 | 39.16461 | 35 ft | 0 kts | 339° |
| 2026-05-04 21:57 | 21.66197 | 39.16460 | 35 ft | 2 kts | 339° |
| 2026-05-04 21:57 | 21.66329 | 39.16407 | 37 ft | 49 kts | 340° |
| 2026-05-04 21:57 | 21.66877 | 39.16192 | 42 ft | 118 kts | 340° |
| 2026-05-04 21:58 | 21.67854 | 39.15806 | 41 ft | 180 kts | 340° |
| 2026-05-04 21:58 | 21.69152 | 39.15295 | 274 ft | 206 kts | 340° |
| 2026-05-04 21:58 | 21.70497 | 39.14762 | 954 ft | 206 kts | 339° |
| 2026-05-04 21:58 | 21.71829 | 39.14196 | 1626 ft | 204 kts | 340° |
| 2026-05-04 21:59 | 21.73082 | 39.13706 | 2413 ft | 186 kts | 342° |
| 2026-05-04 21:59 | 21.74355 | 39.13216 | 2568 ft | 203 kts | 341° |
| 2026-05-04 21:59 | 21.75743 | 39.12676 | 2652 ft | 221 kts | 340° |
| 2026-05-04 21:59 | 21.77214 | 39.12100 | 2799 ft | 238 kts | 340° |
| 2026-05-04 22:00 | 21.78811 | 39.11472 | 3103 ft | 249 kts | 340° |
| 2026-05-04 22:00 | 21.80473 | 39.10817 | 3471 ft | 259 kts | 339° |
| 2026-05-04 22:00 | 21.82186 | 39.10142 | 3983 ft | 263 kts | 339° |
| 2026-05-04 22:00 | 21.83923 | 39.09457 | 4481 ft | 269 kts | 339° |
| 2026-05-04 22:01 | 21.85696 | 39.08757 | 4951 ft | 274 kts | 339° |
| 2026-05-04 22:01 | 21.87494 | 39.08047 | 5472 ft | 276 kts | 339° |
| 2026-05-04 22:01 | 21.89292 | 39.07337 | 6075 ft | 278 kts | 339° |
| 2026-05-04 22:01 | 21.91079 | 39.06559 | 6582 ft | 279 kts | 336° |
| 2026-05-04 22:02 | 21.92844 | 39.05705 | 7034 ft | 282 kts | 334° |
| 2026-05-04 22:02 | 21.94642 | 39.04829 | 7545 ft | 286 kts | 335° |
| 2026-05-04 22:02 | 21.96466 | 39.03948 | 8026 ft | 289 kts | 335° |
| 2026-05-04 22:02 | 21.98295 | 39.03070 | 8601 ft | 288 kts | 334° |
| 2026-05-04 22:03 | 22.00123 | 39.02198 | 9109 ft | 291 kts | 334° |
| 2026-05-04 22:03 | 22.01978 | 39.01311 | 9649 ft | 293 kts | 334° |
| 2026-05-04 22:03 | 22.03843 | 39.00419 | 10112 ft | 297 kts | 334° |
| 2026-05-04 22:03 | 22.05782 | 38.99490 | 10270 ft | 314 kts | 334° |
| 2026-05-04 22:04 | 22.07833 | 38.98506 | 10408 ft | 331 kts | 334° |
| 2026-05-04 22:04 | 22.09998 | 38.97469 | 10540 ft | 349 kts | 334° |
| 2026-05-04 22:04 | 22.12273 | 38.96380 | 10695 ft | 366 kts | 334° |
| 2026-05-04 22:04 | 22.14638 | 38.95247 | 11007 ft | 377 kts | 334° |
| 2026-05-04 22:05 | 22.17050 | 38.94093 | 11457 ft | 384 kts | 334° |
| 2026-05-04 22:05 | 22.19507 | 38.92919 | 12003 ft | 389 kts | 334° |
| 2026-05-04 22:05 | 22.21993 | 38.91732 | 12596 ft | 393 kts | 334° |
| 2026-05-04 22:05 | 22.24483 | 38.90498 | 13100 ft | 393 kts | 329° |
| 2026-05-04 22:06 | 22.26609 | 38.88638 | 13404 ft | 396 kts | 304° |
| 2026-05-04 22:06 | 22.28037 | 38.86136 | 14040 ft | 392 kts | 297° |
| 2026-05-04 22:06 | 22.29369 | 38.83546 | 14478 ft | 398 kts | 297° |
| 2026-05-04 22:06 | 22.30731 | 38.80937 | 15005 ft | 401 kts | 297° |
| 2026-05-04 22:07 | 22.32114 | 38.78313 | 15617 ft | 402 kts | 297° |
| 2026-05-04 22:07 | 22.33507 | 38.75684 | 16198 ft | 404 kts | 297° |
| 2026-05-04 22:07 | 22.34914 | 38.73034 | 16720 ft | 408 kts | 297° |
| 2026-05-04 22:07 | 22.36324 | 38.70377 | 17212 ft | 412 kts | 297° |
| 2026-05-04 22:08 | 22.37755 | 38.67680 | 17760 ft | 415 kts | 297° |
| 2026-05-04 22:08 | 22.39196 | 38.64963 | 18276 ft | 418 kts | 296° |
| 2026-05-04 22:08 | 22.40634 | 38.62248 | 18743 ft | 421 kts | 296° |
| 2026-05-04 22:08 | 22.42089 | 38.59500 | 19258 ft | 422 kts | 296° |
| 2026-05-04 22:09 | 22.43549 | 38.56740 | 19766 ft | 424 kts | 296° |
| 2026-05-04 22:09 | 22.45015 | 38.53969 | 20262 ft | 425 kts | 297° |
| 2026-05-04 22:09 | 22.46486 | 38.51187 | 20746 ft | 428 kts | 297° |
| 2026-05-04 22:09 | 22.47966 | 38.48387 | 21214 ft | 430 kts | 297° |
| 2026-05-04 22:10 | 22.49491 | 38.45607 | 21693 ft | 432 kts | 302° |
| 2026-05-04 22:10 | 22.51536 | 38.43220 | 22018 ft | 440 kts | 318° |
| 2026-05-04 22:10 | 22.53984 | 38.41198 | 22334 ft | 445 kts | 319° |
| 2026-05-04 22:10 | 22.56399 | 38.39201 | 22733 ft | 448 kts | 319° |
| 2026-05-04 22:11 | 22.58866 | 38.37131 | 23216 ft | 449 kts | 318° |
| 2026-05-04 22:11 | 22.61319 | 38.35048 | 23651 ft | 449 kts | 317° |
| 2026-05-04 22:11 | 22.63740 | 38.32971 | 24008 ft | 451 kts | 317° |
| 2026-05-04 22:11 | 22.66197 | 38.30851 | 24349 ft | 453 kts | 317° |
| 2026-05-04 22:12 | 22.68670 | 38.28710 | 24689 ft | 455 kts | 317° |
| 2026-05-04 22:12 | 22.71143 | 38.26564 | 25036 ft | 457 kts | 316° |
| 2026-05-04 22:12 | 22.73631 | 38.24406 | 25423 ft | 458 kts | 316° |
| 2026-05-04 22:12 | 22.76124 | 38.22243 | 25778 ft | 459 kts | 316° |
| 2026-05-04 22:13 | 22.78620 | 38.20077 | 26137 ft | 461 kts | 316° |
| 2026-05-04 22:13 | 22.81127 | 38.17899 | 26482 ft | 463 kts | 316° |
| 2026-05-04 22:13 | 22.83642 | 38.15714 | 26783 ft | 465 kts | 316° |
| 2026-05-04 22:13 | 22.86161 | 38.13525 | 27107 ft | 466 kts | 316° |
| 2026-05-04 22:14 | 22.88696 | 38.11322 | 27437 ft | 468 kts | 315° |
| 2026-05-04 22:14 | 22.91234 | 38.09115 | 27792 ft | 469 kts | 315° |
| 2026-05-04 22:14 | 22.93779 | 38.06901 | 28085 ft | 470 kts | 315° |
| 2026-05-04 22:14 | 22.96333 | 38.04677 | 28365 ft | 471 kts | 315° |
| 2026-05-04 22:15 | 22.98892 | 38.02448 | 28644 ft | 473 kts | 315° |
| 2026-05-04 22:15 | 23.01465 | 38.00205 | 28912 ft | 474 kts | 315° |
| 2026-05-04 22:15 | 23.04037 | 37.97963 | 29170 ft | 475 kts | 315° |
| 2026-05-04 22:15 | 23.06621 | 37.95708 | 29431 ft | 477 kts | 315° |
| 2026-05-04 22:16 | 23.09208 | 37.93451 | 29653 ft | 478 kts | 315° |
| 2026-05-04 22:16 | 23.10925 | 37.91951 | 29848 ft | 478 kts | 315° |
| 2026-05-04 22:16 | 23.13502 | 37.89702 | 30175 ft | 476 kts | 314° |
| 2026-05-04 22:16 | 23.16078 | 37.87452 | 30454 ft | 475 kts | 314° |
| 2026-05-04 22:17 | 23.18654 | 37.85199 | 30686 ft | 475 kts | 314° |
| 2026-05-04 22:17 | 23.21232 | 37.82944 | 30904 ft | 476 kts | 314° |
| 2026-05-04 22:17 | 23.23805 | 37.80690 | 31155 ft | 475 kts | 314° |
| 2026-05-04 22:17 | 23.26378 | 37.78437 | 31405 ft | 474 kts | 314° |
| 2026-05-04 22:18 | 23.28944 | 37.76188 | 31641 ft | 474 kts | 314° |
| 2026-05-04 22:18 | 23.31498 | 37.73948 | 31793 ft | 475 kts | 314° |
| 2026-05-04 22:18 | 23.34079 | 37.71682 | 31801 ft | 478 kts | 314° |
| 2026-05-04 22:19 | 23.39218 | 37.67175 | 31880 ft | 473 kts | 313° |
| 2026-05-04 22:19 | 23.44333 | 37.62681 | 31894 ft | 472 kts | 313° |
| 2026-05-04 22:20 | 23.49439 | 37.58185 | 31895 ft | 471 kts | 313° |
| 2026-05-04 22:20 | 23.54540 | 37.53690 | 31891 ft | 471 kts | 313° |
| 2026-05-04 22:21 | 23.59633 | 37.49197 | 31897 ft | 472 kts | 313° |
| 2026-05-04 22:21 | 23.64736 | 37.44691 | 31897 ft | 472 kts | 313° |
| 2026-05-04 22:22 | 23.69811 | 37.40206 | 31904 ft | 473 kts | 313° |
| 2026-05-04 22:22 | 23.74900 | 37.35704 | 31931 ft | 473 kts | 313° |
| 2026-05-04 22:23 | 23.80016 | 37.31172 | 31920 ft | 474 kts | 313° |
| 2026-05-04 22:23 | 23.85123 | 37.26646 | 31921 ft | 473 kts | 313° |
| 2026-05-04 22:24 | 23.90229 | 37.22114 | 31914 ft | 473 kts | 313° |
| 2026-05-04 22:24 | 23.95328 | 37.17584 | 31919 ft | 472 kts | 313° |
| 2026-05-04 22:25 | 24.00420 | 37.13056 | 31927 ft | 472 kts | 313° |
| 2026-05-04 22:25 | 24.05483 | 37.08548 | 31926 ft | 471 kts | 313° |
| 2026-05-04 22:26 | 24.10553 | 37.04029 | 31937 ft | 471 kts | 312° |
| 2026-05-04 22:26 | 24.15633 | 36.99497 | 31930 ft | 471 kts | 312° |
| 2026-05-04 22:27 | 24.20711 | 36.94962 | 31934 ft | 471 kts | 312° |
| 2026-05-04 22:27 | 24.25767 | 36.90439 | 31948 ft | 474 kts | 312° |
| 2026-05-04 22:28 | 24.30851 | 36.85892 | 31933 ft | 469 kts | 312° |
| 2026-05-04 22:28 | 24.35887 | 36.81382 | 31935 ft | 467 kts | 312° |
| 2026-05-04 22:29 | 24.40922 | 36.76863 | 31937 ft | 467 kts | 312° |
| 2026-05-04 22:29 | 24.45953 | 36.72344 | 31954 ft | 468 kts | 312° |
| 2026-05-04 22:30 | 24.50986 | 36.67819 | 31947 ft | 468 kts | 312° |
| 2026-05-04 22:30 | 24.56021 | 36.63289 | 31948 ft | 468 kts | 312° |
| 2026-05-04 22:31 | 24.60623 | 36.58391 | 31953 ft | 451 kts | 298° |
| 2026-05-04 22:31 | 24.63723 | 36.52547 | 31957 ft | 443 kts | 286° |
| 2026-05-04 22:32 | 24.65716 | 36.46162 | 31937 ft | 443 kts | 283° |
| 2026-05-04 22:32 | 24.67662 | 36.39734 | 31950 ft | 446 kts | 283° |
| 2026-05-04 22:33 | 24.69644 | 36.33279 | 31960 ft | 445 kts | 283° |
| 2026-05-04 22:34 | 24.73816 | 36.19778 | 31965 ft | 441 kts | 283° |
| 2026-05-04 22:34 | 24.75783 | 36.13397 | 31957 ft | 440 kts | 283° |
| 2026-05-04 22:35 | 24.77742 | 36.07030 | 31960 ft | 439 kts | 283° |
| 2026-05-04 22:35 | 24.79693 | 36.00674 | 31963 ft | 439 kts | 283° |
| 2026-05-04 22:36 | 24.81644 | 35.94310 | 31966 ft | 439 kts | 283° |
| 2026-05-04 22:36 | 24.83595 | 35.87932 | 31965 ft | 440 kts | 283° |
| 2026-05-04 22:37 | 24.85546 | 35.81547 | 31970 ft | 440 kts | 283° |
| 2026-05-04 22:37 | 24.87486 | 35.75186 | 31987 ft | 441 kts | 283° |
| 2026-05-04 22:38 | 24.89438 | 35.68779 | 31977 ft | 441 kts | 283° |
| 2026-05-04 22:38 | 24.91068 | 35.63415 | 31967 ft | 441 kts | 283° |
| 2026-05-04 22:39 | 24.93015 | 35.57005 | 31966 ft | 441 kts | 283° |
| 2026-05-04 22:39 | 24.94956 | 35.50598 | 31971 ft | 441 kts | 283° |
| 2026-05-04 22:40 | 24.96892 | 35.44200 | 31972 ft | 440 kts | 283° |
| 2026-05-04 22:40 | 24.98808 | 35.37853 | 31974 ft | 439 kts | 283° |
| 2026-05-04 22:41 | 25.00733 | 35.31466 | 31982 ft | 438 kts | 283° |
| 2026-05-04 22:41 | 25.02651 | 35.25092 | 31980 ft | 438 kts | 283° |
| 2026-05-04 22:42 | 25.04585 | 35.18747 | 31983 ft | 440 kts | 286° |
| 2026-05-04 22:42 | 25.07567 | 35.12768 | 31993 ft | 450 kts | 297° |
| 2026-05-04 22:43 | 25.11632 | 35.07420 | 31989 ft | 461 kts | 307° |
| 2026-05-04 22:43 | 25.16252 | 35.02482 | 32009 ft | 463 kts | 308° |
| 2026-05-04 22:44 | 25.20881 | 34.97540 | 31996 ft | 463 kts | 308° |
| 2026-05-04 22:44 | 25.25483 | 34.92563 | 31984 ft | 462 kts | 307° |
| 2026-05-04 22:45 | 25.30058 | 34.87582 | 31985 ft | 462 kts | 307° |
| 2026-05-04 22:45 | 25.36916 | 34.80100 | 31980 ft | 461 kts | 307° |
| 2026-05-04 22:46 | 25.41477 | 34.75120 | 31979 ft | 460 kts | 307° |
| 2026-05-04 22:46 | 25.46034 | 34.70138 | 31981 ft | 460 kts | 307° |
| 2026-05-04 22:47 | 25.50579 | 34.65165 | 31991 ft | 459 kts | 307° |
| 2026-05-04 22:47 | 25.55120 | 34.60190 | 32003 ft | 459 kts | 308° |
| 2026-05-04 22:48 | 25.59562 | 34.55142 | 31986 ft | 454 kts | 303° |
| 2026-05-04 22:48 | 25.63621 | 34.49856 | 31988 ft | 453 kts | 303° |
| 2026-05-04 22:49 | 25.67703 | 34.44522 | 31988 ft | 454 kts | 303° |
| 2026-05-04 22:49 | 25.71800 | 34.39189 | 31993 ft | 455 kts | 303° |
| 2026-05-04 22:50 | 25.75910 | 34.33843 | 31991 ft | 455 kts | 303° |
| 2026-05-04 22:50 | 25.80021 | 34.28492 | 31990 ft | 456 kts | 303° |
| 2026-05-04 22:51 | 25.84136 | 34.23127 | 31996 ft | 456 kts | 303° |
| 2026-05-04 22:51 | 25.88250 | 34.17758 | 31989 ft | 456 kts | 304° |
| 2026-05-04 22:52 | 25.92346 | 34.12405 | 31998 ft | 457 kts | 304° |
| 2026-05-04 22:52 | 25.96458 | 34.07022 | 31998 ft | 457 kts | 303° |
| 2026-05-04 22:53 | 26.00544 | 34.01668 | 31997 ft | 456 kts | 303° |
| 2026-05-04 22:53 | 26.04640 | 33.96292 | 32005 ft | 456 kts | 303° |
| 2026-05-04 22:54 | 26.08736 | 33.90909 | 32003 ft | 455 kts | 304° |
| 2026-05-04 22:54 | 26.12778 | 33.85591 | 32012 ft | 455 kts | 304° |
| 2026-05-04 22:55 | 26.16864 | 33.80210 | 32011 ft | 455 kts | 304° |